PWSweather.com
Personal Weather Stations
Station Observations
PENICUIKWS
PenicuikGB

PenicuikGB

Lat: 55.830932, Lon: -3.224533000000065

Elevation: 166

Station Type: Fine Offset

http://weather.penicuik.org

High Low Average
Temperature 72.1°F22.3°C 48.9°F9.4°C 59.6°F15.3°C
Dew Point 57.7°F14.3°C 48.7°F9.3°C 54.6°F12.6°C
Winds 4.5 mph 7.2 kmh Calm Calm 1.0 mph ESE1.6 kmh ESE
Wind Gusts 6.9 mph11.1 kmh -- 2.0 mph3.2 kmh
Humidity 99% 57% 85%
Pressure 30.14 in1020.7 mb 30.09 in1019.0 mb -
Precipitation 0.01 in0.3 mm - -
Hour Temp Dew Point Humidity Winds Wind Gusts Pressure Precip Precip Rate Daily Precip Total
12:15 AM 50.9°F10.5°C 50.6°F10.3°C 99% 0.2 mph NW0.3 kmh NW 0.7 mph1.1 kmh 30.10 in1019.3 mb 0.00 in0.0 mm 0.00 in0.0 mm 0.00 in0.0 mm
12:45 AM 50.5°F10.3°C 50.3°F10.2°C 99% 0.1 mph SW0.2 kmh SW 0.7 mph1.1 kmh 30.09 in1019.0 mb 0.00 in0.0 mm 0.00 in0.0 mm 0.00 in0.0 mm
01:00 AM 50.4°F10.2°C 50.1°F10.1°C 99% Calm Calm -- 30.10 in1019.3 mb 0.00 in0.0 mm 0.00 in0.0 mm 0.00 in0.0 mm
01:15 AM 50.2°F10.1°C 49.9°F9.9°C 99% 0.2 mph SW0.3 kmh SW 1.6 mph2.6 kmh 30.11 in1019.6 mb 0.01 in0.3 mm 0.04 in1.0 mm 0.01 in0.3 mm
01:30 AM 49.6°F9.8°C 49.4°F9.7°C 99% 0.5 mph NNE0.8 kmh NNE 1.6 mph2.6 kmh 30.10 in1019.3 mb 0.01 in0.3 mm 0.00 in0.0 mm 0.01 in0.3 mm
01:45 AM 48.9°F9.4°C 48.7°F9.3°C 99% Calm Calm 0.7 mph1.1 kmh 30.10 in1019.3 mb 0.01 in0.3 mm 0.00 in0.0 mm 0.01 in0.3 mm
02:00 AM 48.9°F9.4°C 48.7°F9.3°C 99% Calm Calm -- 30.10 in1019.3 mb 0.01 in0.3 mm 0.00 in0.0 mm 0.01 in0.3 mm
02:15 AM 49.8°F9.9°C 49.6°F9.8°C 99% 0.1 mph N0.2 kmh N 0.7 mph1.1 kmh 30.11 in1019.6 mb 0.00 in0.0 mm 0.00 in0.0 mm 0.01 in0.3 mm
02:30 AM 50.4°F10.2°C 50.1°F10.1°C 99% Calm Calm -- 30.11 in1019.6 mb 0.00 in0.0 mm 0.00 in0.0 mm 0.01 in0.3 mm
02:45 AM 50.7°F10.4°C 50.5°F10.3°C 99% Calm Calm -- 30.10 in1019.3 mb 0.00 in0.0 mm 0.00 in0.0 mm 0.01 in0.3 mm
03:00 AM 50.9°F10.5°C 50.6°F10.3°C 99% Calm Calm -- 30.10 in1019.3 mb 0.00 in0.0 mm 0.00 in0.0 mm 0.01 in0.3 mm
03:15 AM 50.9°F10.5°C 50.6°F10.3°C 99% Calm Calm -- 30.09 in1019.0 mb 0.00 in0.0 mm 0.00 in0.0 mm 0.01 in0.3 mm
03:30 AM 51.8°F11.0°C 51.3°F10.7°C 98% Calm Calm -- 30.10 in1019.3 mb 0.00 in0.0 mm 0.00 in0.0 mm 0.01 in0.3 mm
03:45 AM 51.8°F11.0°C 51.3°F10.7°C 98% 0.2 mph SW0.3 kmh SW 0.7 mph1.1 kmh 30.09 in1019.0 mb 0.00 in0.0 mm 0.00 in0.0 mm 0.01 in0.3 mm
04:00 AM 52.0°F11.1°C 51.4°F10.8°C 98% 0.1 mph N0.2 kmh N 0.7 mph1.1 kmh 30.09 in1019.0 mb 0.00 in0.0 mm 0.00 in0.0 mm 0.01 in0.3 mm
04:15 AM 52.2°F11.2°C 51.6°F10.9°C 98% 0.1 mph S0.2 kmh S 0.7 mph1.1 kmh 30.09 in1019.0 mb 0.00 in0.0 mm 0.00 in0.0 mm 0.01 in0.3 mm
04:30 AM 52.2°F11.2°C 51.6°F10.9°C 98% 0.5 mph SW0.8 kmh SW 1.6 mph2.6 kmh 30.09 in1019.0 mb 0.00 in0.0 mm 0.00 in0.0 mm 0.01 in0.3 mm
04:45 AM 52.2°F11.2°C 51.6°F10.9°C 98% 0.4 mph W0.6 kmh W 0.7 mph1.1 kmh 30.09 in1019.0 mb 0.00 in0.0 mm 0.00 in0.0 mm 0.01 in0.3 mm
05:00 AM 52.2°F11.2°C 51.6°F10.9°C 98% 1.0 mph W1.6 kmh W 1.6 mph2.6 kmh 30.09 in1019.0 mb 0.00 in0.0 mm 0.00 in0.0 mm 0.01 in0.3 mm
05:15 AM 52.0°F11.1°C 51.4°F10.8°C 98% 0.6 mph SE1.0 kmh SE 1.6 mph2.6 kmh 30.10 in1019.3 mb 0.00 in0.0 mm 0.00 in0.0 mm 0.01 in0.3 mm
05:45 AM 52.0°F11.1°C 51.4°F10.8°C 98% 0.9 mph SW1.4 kmh SW 3.1 mph5.0 kmh 30.11 in1019.6 mb 0.00 in0.0 mm 0.00 in0.0 mm 0.01 in0.3 mm
06:00 AM 52.0°F11.1°C 51.4°F10.8°C 98% 0.2 mph NW0.3 kmh NW 2.2 mph3.5 kmh 30.11 in1019.6 mb 0.00 in0.0 mm 0.00 in0.0 mm 0.01 in0.3 mm
06:30 AM 52.3°F11.3°C 51.8°F11.0°C 98% 1.1 mph W1.8 kmh W 2.2 mph3.5 kmh 30.12 in1020.0 mb 0.00 in0.0 mm 0.00 in0.0 mm 0.01 in0.3 mm
06:45 AM 53.1°F11.7°C 52.5°F11.4°C 98% 0.8 mph W1.3 kmh W 2.2 mph3.5 kmh 30.11 in1019.6 mb 0.00 in0.0 mm 0.00 in0.0 mm 0.01 in0.3 mm
07:00 AM 54.9°F12.7°C 54.0°F12.2°C 97% 1.1 mph SW1.8 kmh SW 2.2 mph3.5 kmh 30.11 in1019.6 mb 0.00 in0.0 mm 0.00 in0.0 mm 0.01 in0.3 mm
07:15 AM 55.2°F12.9°C 54.4°F12.4°C 97% 1.4 mph S2.3 kmh S 3.1 mph5.0 kmh 30.11 in1019.6 mb 0.00 in0.0 mm 0.00 in0.0 mm 0.01 in0.3 mm
07:30 AM 58.3°F14.6°C 57.7°F14.3°C 98% 1.8 mph S2.9 kmh S 3.1 mph5.0 kmh 30.11 in1019.6 mb 0.00 in0.0 mm 0.00 in0.0 mm 0.01 in0.3 mm
07:45 AM 59.2°F15.1°C 57.2°F14.0°C 93% 1.6 mph S2.6 kmh S 2.2 mph3.5 kmh 30.11 in1019.6 mb 0.00 in0.0 mm 0.00 in0.0 mm 0.01 in0.3 mm
08:00 AM 58.3°F14.6°C 54.1°F12.3°C 86% 2.3 mph S3.7 kmh S 3.8 mph6.1 kmh 30.12 in1020.0 mb 0.00 in0.0 mm 0.00 in0.0 mm 0.01 in0.3 mm
08:15 AM 58.3°F14.6°C 53.8°F12.1°C 85% 2.6 mph S4.2 kmh S 3.1 mph5.0 kmh 30.12 in1020.0 mb 0.00 in0.0 mm 0.00 in0.0 mm 0.01 in0.3 mm
08:30 AM 60.1°F15.6°C 54.2°F12.3°C 81% 4.2 mph SSE6.8 kmh SSE 6.0 mph9.7 kmh 30.12 in1020.0 mb 0.00 in0.0 mm 0.00 in0.0 mm 0.01 in0.3 mm
08:45 AM 62.2°F16.8°C 54.6°F12.6°C 76% 3.2 mph S5.1 kmh S 5.4 mph8.7 kmh 30.11 in1019.6 mb 0.00 in0.0 mm 0.00 in0.0 mm 0.01 in0.3 mm
09:00 AM 63.3°F17.4°C 53.4°F11.9°C 70% 3.3 mph SSE5.3 kmh SSE 4.5 mph7.2 kmh 30.12 in1020.0 mb 0.00 in0.0 mm 0.00 in0.0 mm 0.01 in0.3 mm
09:30 AM 66.9°F19.4°C 55.6°F13.1°C 67% 1.7 mph NNE2.7 kmh NNE 3.8 mph6.1 kmh 30.12 in1020.0 mb 0.00 in0.0 mm 0.00 in0.0 mm 0.01 in0.3 mm
10:00 AM 70.3°F21.3°C 54.9°F12.7°C 58% 2.0 mph NNW3.2 kmh NNW 5.4 mph8.7 kmh 30.12 in1020.0 mb 0.00 in0.0 mm 0.00 in0.0 mm 0.01 in0.3 mm
10:15 AM 69.4°F20.8°C 56.3°F13.5°C 63% 1.5 mph NE2.4 kmh NE 3.1 mph5.0 kmh 30.12 in1020.0 mb 0.00 in0.0 mm 0.00 in0.0 mm 0.01 in0.3 mm
10:30 AM 67.5°F19.7°C 54.4°F12.4°C 63% 1.8 mph N2.9 kmh N 3.1 mph5.0 kmh 30.11 in1019.6 mb 0.00 in0.0 mm 0.00 in0.0 mm 0.01 in0.3 mm
10:45 AM 69.1°F20.6°C 56.0°F13.3°C 63% 3.5 mph N5.6 kmh N 4.5 mph7.2 kmh 30.12 in1020.0 mb 0.00 in0.0 mm 0.00 in0.0 mm 0.01 in0.3 mm
11:00 AM 69.1°F20.6°C 55.5°F13.1°C 62% 3.6 mph NNE5.8 kmh NNE 6.0 mph9.7 kmh 30.11 in1019.6 mb 0.00 in0.0 mm 0.00 in0.0 mm 0.01 in0.3 mm
11:15 AM 70.5°F21.4°C 55.5°F13.1°C 59% 2.5 mph NE4.0 kmh NE 4.5 mph7.2 kmh 30.12 in1020.0 mb 0.00 in0.0 mm 0.00 in0.0 mm 0.01 in0.3 mm
11:30 AM 72.1°F22.3°C 56.1°F13.4°C 57% 2.7 mph ENE4.3 kmh ENE 5.4 mph8.7 kmh 30.11 in1019.6 mb 0.00 in0.0 mm 0.00 in0.0 mm 0.01 in0.3 mm
12:00 PM 70.3°F21.3°C 54.9°F12.7°C 58% 2.3 mph NE3.7 kmh NE 4.5 mph7.2 kmh 30.11 in1019.6 mb 0.00 in0.0 mm 0.00 in0.0 mm 0.01 in0.3 mm
12:15 PM 70.0°F21.1°C 56.4°F13.6°C 62% 2.6 mph NNE4.2 kmh NNE 4.5 mph7.2 kmh 30.11 in1019.6 mb 0.00 in0.0 mm 0.00 in0.0 mm 0.01 in0.3 mm
12:30 PM 67.5°F19.7°C 56.6°F13.7°C 68% 3.9 mph N6.3 kmh N 6.0 mph9.7 kmh 30.11 in1019.6 mb 0.00 in0.0 mm 0.00 in0.0 mm 0.01 in0.3 mm
12:45 PM 66.6°F19.2°C 56.9°F13.8°C 71% 2.3 mph N3.7 kmh N 3.8 mph6.1 kmh 30.12 in1020.0 mb 0.00 in0.0 mm 0.00 in0.0 mm 0.01 in0.3 mm
01:15 PM 66.7°F19.3°C 56.3°F13.5°C 69% 3.1 mph N5.0 kmh N 5.4 mph8.7 kmh 30.12 in1020.0 mb 0.00 in0.0 mm 0.00 in0.0 mm 0.01 in0.3 mm
01:30 PM 65.7°F18.7°C 56.8°F13.8°C 73% 4.1 mph N6.6 kmh N 6.9 mph11.1 kmh 30.12 in1020.0 mb 0.00 in0.0 mm 0.00 in0.0 mm 0.01 in0.3 mm
01:45 PM 64.8°F18.2°C 55.9°F13.3°C 73% 4.2 mph N6.8 kmh N 6.9 mph11.1 kmh 30.11 in1019.6 mb 0.00 in0.0 mm 0.00 in0.0 mm 0.01 in0.3 mm
02:00 PM 64.9°F18.3°C 56.1°F13.4°C 73% 4.1 mph N6.6 kmh N 6.0 mph9.7 kmh 30.12 in1020.0 mb 0.00 in0.0 mm 0.00 in0.0 mm 0.01 in0.3 mm
02:15 PM 64.0°F17.8°C 54.5°F12.5°C 71% 4.5 mph N7.2 kmh N 6.0 mph9.7 kmh 30.11 in1019.6 mb 0.00 in0.0 mm 0.00 in0.0 mm 0.01 in0.3 mm
02:30 PM 64.6°F18.1°C 56.1°F13.4°C 74% 3.0 mph N4.8 kmh N 5.4 mph8.7 kmh 30.12 in1020.0 mb 0.00 in0.0 mm 0.00 in0.0 mm 0.01 in0.3 mm
02:45 PM 65.3°F18.5°C 56.4°F13.6°C 73% 3.3 mph N5.3 kmh N 5.4 mph8.7 kmh 30.12 in1020.0 mb 0.00 in0.0 mm 0.00 in0.0 mm 0.01 in0.3 mm
03:00 PM 65.5°F18.6°C 56.2°F13.4°C 72% 1.6 mph N2.6 kmh N 3.8 mph6.1 kmh 30.11 in1019.6 mb 0.00 in0.0 mm 0.00 in0.0 mm 0.01 in0.3 mm
03:15 PM 66.7°F19.3°C 57.1°F13.9°C 71% 1.6 mph S2.6 kmh S 2.2 mph3.5 kmh 30.11 in1019.6 mb 0.00 in0.0 mm 0.00 in0.0 mm 0.01 in0.3 mm
03:30 PM 67.1°F19.5°C 56.6°F13.7°C 69% 1.2 mph N1.9 kmh N 1.6 mph2.6 kmh 30.11 in1019.6 mb 0.00 in0.0 mm 0.00 in0.0 mm 0.01 in0.3 mm
03:45 PM 66.7°F19.3°C 55.5°F13.1°C 67% 1.4 mph N2.3 kmh N 2.2 mph3.5 kmh 30.11 in1019.6 mb 0.00 in0.0 mm 0.00 in0.0 mm 0.01 in0.3 mm
04:00 PM 65.7°F18.7°C 56.0°F13.3°C 71% 1.5 mph N2.4 kmh N 3.1 mph5.0 kmh 30.11 in1019.6 mb 0.00 in0.0 mm 0.00 in0.0 mm 0.01 in0.3 mm
04:15 PM 64.6°F18.1°C 56.1°F13.4°C 74% 2.0 mph N3.2 kmh N 3.1 mph5.0 kmh 30.11 in1019.6 mb 0.00 in0.0 mm 0.00 in0.0 mm 0.01 in0.3 mm
04:30 PM 64.6°F18.1°C 56.5°F13.6°C 75% 2.0 mph NNW3.2 kmh NNW 3.1 mph5.0 kmh 30.11 in1019.6 mb 0.00 in0.0 mm 0.00 in0.0 mm 0.01 in0.3 mm
04:45 PM 64.0°F17.8°C 55.6°F13.1°C 74% 2.8 mph N4.5 kmh N 5.4 mph8.7 kmh 30.10 in1019.3 mb 0.00 in0.0 mm 0.00 in0.0 mm 0.01 in0.3 mm
05:00 PM 63.3°F17.4°C 55.6°F13.1°C 76% 2.1 mph N3.4 kmh N 3.1 mph5.0 kmh 30.11 in1019.6 mb 0.00 in0.0 mm 0.00 in0.0 mm 0.01 in0.3 mm
05:45 PM 61.9°F16.6°C 55.7°F13.2°C 80% 2.6 mph N4.2 kmh N 4.5 mph7.2 kmh 30.11 in1019.6 mb 0.00 in0.0 mm 0.00 in0.0 mm 0.01 in0.3 mm
06:00 PM 61.5°F16.4°C 56.0°F13.3°C 82% 1.7 mph N2.7 kmh N 3.1 mph5.0 kmh 30.11 in1019.6 mb 0.00 in0.0 mm 0.00 in0.0 mm 0.01 in0.3 mm
06:15 PM 61.2°F16.2°C 56.3°F13.5°C 84% 2.0 mph N3.2 kmh N 3.1 mph5.0 kmh 30.11 in1019.6 mb 0.00 in0.0 mm 0.00 in0.0 mm 0.01 in0.3 mm
06:30 PM 61.2°F16.2°C 56.6°F13.7°C 85% 0.5 mph NNE0.8 kmh NNE 2.2 mph3.5 kmh 30.11 in1019.6 mb 0.00 in0.0 mm 0.00 in0.0 mm 0.01 in0.3 mm
06:45 PM 60.8°F16.0°C 56.6°F13.7°C 86% 1.0 mph N1.6 kmh N 2.2 mph3.5 kmh 30.11 in1019.6 mb 0.00 in0.0 mm 0.00 in0.0 mm 0.01 in0.3 mm
07:00 PM 60.3°F15.7°C 57.0°F13.9°C 89% Calm Calm -- 30.11 in1019.6 mb 0.00 in0.0 mm 0.00 in0.0 mm 0.01 in0.3 mm
07:15 PM 60.1°F15.6°C 57.2°F14.0°C 90% Calm Calm -- 30.11 in1019.6 mb 0.00 in0.0 mm 0.00 in0.0 mm 0.01 in0.3 mm
07:30 PM 59.9°F15.5°C 57.0°F13.9°C 90% 0.6 mph SSE1.0 kmh SSE 1.6 mph2.6 kmh 30.12 in1020.0 mb 0.00 in0.0 mm 0.00 in0.0 mm 0.01 in0.3 mm
07:45 PM 59.7°F15.4°C 57.1°F13.9°C 91% Calm Calm -- 30.12 in1020.0 mb 0.00 in0.0 mm 0.00 in0.0 mm 0.01 in0.3 mm
08:00 PM 59.5°F15.3°C 56.9°F13.8°C 91% Calm Calm -- 30.12 in1020.0 mb 0.00 in0.0 mm 0.00 in0.0 mm 0.01 in0.3 mm
08:30 PM 59.4°F15.2°C 57.0°F13.9°C 92% Calm Calm -- 30.12 in1020.0 mb 0.00 in0.0 mm 0.00 in0.0 mm 0.01 in0.3 mm
08:45 PM 59.2°F15.1°C 57.2°F14.0°C 93% Calm Calm -- 30.12 in1020.0 mb 0.00 in0.0 mm 0.00 in0.0 mm 0.01 in0.3 mm
09:00 PM 59.2°F15.1°C 57.2°F14.0°C 93% Calm Calm -- 30.12 in1020.0 mb 0.00 in0.0 mm 0.00 in0.0 mm 0.01 in0.3 mm
09:15 PM 59.2°F15.1°C 57.2°F14.0°C 93% Calm Calm -- 30.13 in1020.3 mb 0.00 in0.0 mm 0.00 in0.0 mm 0.01 in0.3 mm
09:30 PM 59.2°F15.1°C 57.5°F14.2°C 94% Calm Calm -- 30.13 in1020.3 mb 0.00 in0.0 mm 0.00 in0.0 mm 0.01 in0.3 mm
10:00 PM 59.2°F15.1°C 57.5°F14.2°C 94% Calm Calm -- 30.13 in1020.3 mb 0.00 in0.0 mm 0.00 in0.0 mm 0.01 in0.3 mm
10:15 PM 59.0°F15.0°C 57.3°F14.1°C 94% Calm Calm -- 30.14 in1020.7 mb 0.00 in0.0 mm 0.00 in0.0 mm 0.01 in0.3 mm
11:00 PM 59.0°F15.0°C 57.6°F14.2°C 95% 0.7 mph SW1.1 kmh SW 2.2 mph3.5 kmh 30.13 in1020.3 mb 0.00 in0.0 mm 0.00 in0.0 mm 0.01 in0.3 mm
11:15 PM 58.8°F14.9°C 57.7°F14.3°C 96% Calm Calm -- 30.13 in1020.3 mb 0.00 in0.0 mm 0.00 in0.0 mm 0.01 in0.3 mm
11:30 PM 59.0°F15.0°C 57.6°F14.2°C 95% 0.2 mph SW0.3 kmh SW 0.7 mph1.1 kmh 30.12 in1020.0 mb 0.00 in0.0 mm 0.00 in0.0 mm 0.01 in0.3 mm
11:45 PM 58.6°F14.8°C 57.5°F14.2°C 96% Calm Calm -- 30.12 in1020.0 mb 0.00 in0.0 mm 0.00 in0.0 mm 0.01 in0.3 mm